createdAt,value
2019-03-31T00:00:43.022Z,8.88
2019-03-31T00:01:43.028Z,8.89
2019-03-31T00:02:43.009Z,8.97
2019-03-31T00:03:42.993Z,8.91
2019-03-31T00:04:42.975Z,8.88
2019-03-31T00:05:42.964Z,8.85
2019-03-31T00:06:42.989Z,8.82
2019-03-31T00:07:42.988Z,8.73
2019-03-31T00:08:42.944Z,8.78
2019-03-31T00:09:42.929Z,8.73
2019-03-31T00:10:42.917Z,8.70
2019-03-31T00:11:42.931Z,8.73
2019-03-31T00:12:42.902Z,8.60
2019-03-31T00:13:42.890Z,8.60
2019-03-31T00:14:42.874Z,8.68
2019-03-31T00:15:42.863Z,8.65
2019-03-31T00:16:42.875Z,8.71
2019-03-31T00:17:42.840Z,8.68
2019-03-31T00:18:42.831Z,8.71
2019-03-31T00:19:42.825Z,8.61
2019-03-31T00:20:42.819Z,8.73
2019-03-31T00:21:42.809Z,8.70
2019-03-31T00:22:42.790Z,8.82
2019-03-31T00:23:42.770Z,8.86
2019-03-31T00:24:42.761Z,8.89
2019-03-31T00:25:42.749Z,8.89
2019-03-31T00:26:42.758Z,8.98
2019-03-31T00:27:42.737Z,8.89
2019-03-31T00:28:42.739Z,8.89
2019-03-31T00:29:42.712Z,9.06
2019-03-31T00:30:42.701Z,9.08
2019-03-31T00:31:42.718Z,9.01
2019-03-31T00:32:42.678Z,9.19
2019-03-31T00:33:42.673Z,9.19
2019-03-31T00:34:42.656Z,9.20
2019-03-31T00:35:42.661Z,9.22
2019-03-31T00:36:42.652Z,9.19
2019-03-31T00:37:42.628Z,9.19
2019-03-31T00:38:42.616Z,9.26
2019-03-31T00:39:42.627Z,9.22
2019-03-31T00:40:42.594Z,9.24
2019-03-31T00:41:42.599Z,9.03
2019-03-31T00:42:42.573Z,9.13
2019-03-31T00:43:42.562Z,9.00
2019-03-31T00:44:42.545Z,8.89
2019-03-31T00:45:42.540Z,8.89
2019-03-31T00:46:42.540Z,8.80
2019-03-31T00:47:42.572Z,8.80
2019-03-31T00:48:42.494Z,8.80
2019-03-31T00:49:42.498Z,8.82
2019-03-31T00:50:42.488Z,8.75
2019-03-31T00:51:42.485Z,8.79
2019-03-31T00:52:42.462Z,8.80
2019-03-31T00:53:42.448Z,8.85
2019-03-31T00:54:42.512Z,8.78
2019-03-31T00:55:42.432Z,8.80
2019-03-31T00:56:42.432Z,8.86
2019-03-31T00:57:42.412Z,8.73
2019-03-31T00:58:42.391Z,8.64
2019-03-31T00:59:42.387Z,8.61
2019-03-31T01:00:42.382Z,8.54
2019-03-31T01:01:42.368Z,8.54
2019-03-31T01:02:42.371Z,8.45
2019-03-31T01:04:51.540Z,8.25
2019-03-31T01:05:52.523Z,8.21
2019-03-31T01:06:52.511Z,8.27
2019-03-31T01:07:52.520Z,8.25
2019-03-31T01:08:52.486Z,8.20
2019-03-31T01:09:52.480Z,8.21
2019-03-31T01:10:52.469Z,8.34
2019-03-31T01:11:52.454Z,8.28
2019-03-31T01:12:52.466Z,8.25
2019-03-31T01:13:52.435Z,8.29
2019-03-31T01:14:52.424Z,8.18
2019-03-31T01:15:52.405Z,8.07
2019-03-31T01:16:52.414Z,8.07
2019-03-31T01:17:52.409Z,7.96
2019-03-31T01:18:52.385Z,7.89
2019-03-31T01:19:52.378Z,7.86
2019-03-31T01:20:52.360Z,7.77
2019-03-31T01:21:52.346Z,7.77
2019-03-31T01:22:52.351Z,7.71
2019-03-31T01:23:52.322Z,7.63
2019-03-31T01:24:52.314Z,7.54
2019-03-31T01:25:52.298Z,7.45
2019-03-31T01:26:52.289Z,7.48
2019-03-31T01:27:52.292Z,7.42
2019-03-31T01:28:52.264Z,7.34
2019-03-31T01:29:52.264Z,7.33
2019-03-31T01:30:52.246Z,7.32
2019-03-31T01:31:52.244Z,7.29
2019-03-31T01:32:52.242Z,7.50
2019-03-31T01:33:52.225Z,7.51
2019-03-31T01:34:52.244Z,7.52
2019-03-31T01:35:52.200Z,7.41
2019-03-31T01:36:52.186Z,7.45
2019-03-31T01:37:52.197Z,7.47
2019-03-31T01:38:52.163Z,7.39
2019-03-31T01:39:52.150Z,7.48
2019-03-31T01:40:52.138Z,7.73
2019-03-31T01:41:52.136Z,7.82
2019-03-31T01:42:52.152Z,7.95
2019-03-31T01:43:52.106Z,8.06
2019-03-31T01:44:52.105Z,8.00
2019-03-31T01:45:52.099Z,8.06
2019-03-31T01:46:52.074Z,8.12
2019-03-31T01:47:52.089Z,8.21
2019-03-31T01:48:52.062Z,8.20
2019-03-31T01:49:52.049Z,8.14
2019-03-31T01:50:52.033Z,8.21
2019-03-31T01:51:52.034Z,8.14
2019-03-31T01:52:52.069Z,8.22
2019-03-31T01:53:52.009Z,8.14
2019-03-31T01:54:51.989Z,8.07
2019-03-31T01:55:51.980Z,8.04
2019-03-31T01:56:51.979Z,7.99
2019-03-31T01:57:51.965Z,8.04
2019-03-31T01:58:51.944Z,7.91
2019-03-31T01:59:51.941Z,7.84
2019-03-31T02:00:51.923Z,7.76
2019-03-31T02:02:03.526Z,7.71
2019-03-31T02:02:51.925Z,7.73
2019-03-31T02:03:51.925Z,7.69
2019-03-31T02:04:51.892Z,7.73
2019-03-31T02:05:51.865Z,7.60
2019-03-31T02:06:51.859Z,7.55
2019-03-31T02:07:51.871Z,7.70
2019-03-31T02:08:51.847Z,7.67
2019-03-31T02:09:51.830Z,7.69
2019-03-31T02:10:51.812Z,7.62
2019-03-31T02:11:51.804Z,7.62
2019-03-31T02:12:51.812Z,7.71
2019-03-31T02:13:51.784Z,7.86
2019-03-31T02:14:51.775Z,7.81
2019-03-31T02:15:51.763Z,7.86
2019-03-31T02:16:51.754Z,8.02
2019-03-31T02:17:51.784Z,7.95
2019-03-31T02:18:51.737Z,8.02
2019-03-31T02:19:51.726Z,8.03
2019-03-31T02:20:51.707Z,7.95
2019-03-31T02:21:51.709Z,8.04
2019-03-31T02:22:51.701Z,7.96
2019-03-31T02:23:51.674Z,8.07
2019-03-31T02:24:51.671Z,7.92
2019-03-31T02:25:51.675Z,8.02
2019-03-31T02:26:51.649Z,8.04
2019-03-31T02:27:51.657Z,8.02
2019-03-31T02:28:51.617Z,8.04
2019-03-31T02:29:51.619Z,8.07
2019-03-31T02:30:51.603Z,8.13
2019-03-31T02:31:51.594Z,8.14
2019-03-31T02:32:51.592Z,8.13
2019-03-31T02:33:51.597Z,8.20
2019-03-31T02:34:51.563Z,8.17
2019-03-31T02:35:51.555Z,8.21
2019-03-31T02:36:51.531Z,8.14
2019-03-31T02:37:51.524Z,8.20
2019-03-31T02:38:51.535Z,8.12
2019-03-31T02:39:51.506Z,8.12
2019-03-31T02:40:51.516Z,8.17
2019-03-31T02:41:51.482Z,8.21
2019-03-31T02:42:51.477Z,8.17
2019-03-31T02:43:51.489Z,8.25
2019-03-31T02:44:51.460Z,8.20
2019-03-31T02:45:51.452Z,8.28
2019-03-31T02:46:51.446Z,8.28
2019-03-31T02:47:51.430Z,8.34
2019-03-31T02:48:51.423Z,8.36
2019-03-31T02:49:51.404Z,8.34
2019-03-31T02:50:51.379Z,8.34
2019-03-31T02:51:51.378Z,8.43
2019-03-31T02:52:51.407Z,8.43
2019-03-31T02:53:51.373Z,8.40
2019-03-31T02:54:51.355Z,8.45
2019-03-31T02:55:51.328Z,8.43
2019-03-31T02:56:51.326Z,8.45
2019-03-31T02:57:51.345Z,8.43
2019-03-31T02:58:51.333Z,8.50
2019-03-31T02:59:51.296Z,8.49
2019-03-31T03:00:51.313Z,8.47
2019-03-31T03:01:51.274Z,8.57
2019-03-31T03:02:51.257Z,8.52
2019-03-31T03:03:51.252Z,8.50
2019-03-31T03:05:59.971Z,8.54
2019-03-31T03:07:00.915Z,8.47
2019-03-31T03:08:01.792Z,8.52
2019-03-31T03:09:00.914Z,8.61
2019-03-31T03:10:00.876Z,8.57
2019-03-31T03:11:00.867Z,8.60
2019-03-31T03:12:00.869Z,8.55
2019-03-31T03:13:00.843Z,8.52
2019-03-31T03:14:00.861Z,8.55
2019-03-31T03:15:00.830Z,8.55
2019-03-31T03:16:00.822Z,8.58
2019-03-31T03:17:00.816Z,8.49
2019-03-31T03:18:00.791Z,8.52
2019-03-31T03:19:00.795Z,8.46
2019-03-31T03:20:00.783Z,8.54
2019-03-31T03:21:00.753Z,8.50
2019-03-31T03:22:00.754Z,8.54
2019-03-31T03:23:00.746Z,8.54
2019-03-31T03:24:00.754Z,8.49
2019-03-31T03:25:00.720Z,8.52
2019-03-31T03:26:00.702Z,8.40
2019-03-31T03:27:00.703Z,8.46
2019-03-31T03:28:00.694Z,8.54
2019-03-31T03:29:00.709Z,8.43
2019-03-31T03:30:00.790Z,8.49
2019-03-31T03:31:01.061Z,8.50
2019-03-31T03:32:00.645Z,8.43
2019-03-31T03:33:14.523Z,8.46
2019-03-31T03:34:00.636Z,8.46
2019-03-31T03:35:01.129Z,8.40
2019-03-31T03:36:00.607Z,8.32
2019-03-31T03:37:00.601Z,8.27
2019-03-31T03:38:00.582Z,8.28
2019-03-31T03:39:00.609Z,8.14
2019-03-31T03:40:00.565Z,8.22
2019-03-31T03:41:00.538Z,8.20
2019-03-31T03:42:00.535Z,8.22
2019-03-31T03:43:00.530Z,8.18
2019-03-31T03:44:02.538Z,8.18
2019-03-31T03:45:00.514Z,8.10
2019-03-31T03:46:00.481Z,8.07
2019-03-31T03:47:00.478Z,8.12
2019-03-31T03:48:00.469Z,7.96
2019-03-31T03:49:00.527Z,8.06
2019-03-31T03:50:00.693Z,8.06
2019-03-31T03:51:00.437Z,7.95
2019-03-31T03:52:00.427Z,8.02
2019-03-31T03:53:00.426Z,8.03
2019-03-31T03:54:00.430Z,7.94
2019-03-31T03:55:00.536Z,8.00
2019-03-31T03:56:00.379Z,8.06
2019-03-31T03:57:00.366Z,8.04
2019-03-31T03:58:00.352Z,7.99
2019-03-31T03:59:00.381Z,8.03
2019-03-31T04:00:00.731Z,8.04
2019-03-31T04:01:00.325Z,7.99
2019-03-31T04:02:00.311Z,8.00
2019-03-31T04:03:00.296Z,8.06
2019-03-31T04:04:00.284Z,8.07
2019-03-31T04:05:00.592Z,8.02
2019-03-31T04:06:00.276Z,7.92
2019-03-31T04:07:00.253Z,8.00
2019-03-31T04:08:00.255Z,8.00
2019-03-31T04:09:00.246Z,8.00
2019-03-31T04:10:00.438Z,7.95
2019-03-31T04:11:00.211Z,8.00
2019-03-31T04:12:00.216Z,8.00
2019-03-31T04:13:00.195Z,8.03
2019-03-31T04:14:00.193Z,8.00
2019-03-31T04:15:00.571Z,7.99
2019-03-31T04:16:00.164Z,8.02
2019-03-31T04:17:00.151Z,8.00
2019-03-31T04:18:00.138Z,8.02
2019-03-31T04:19:00.128Z,8.07
2019-03-31T04:20:00.439Z,8.02
2019-03-31T04:21:00.128Z,7.94
2019-03-31T04:22:00.101Z,8.03
2019-03-31T04:23:00.086Z,8.02
2019-03-31T04:24:00.087Z,8.10
2019-03-31T04:25:00.649Z,8.09
2019-03-31T04:26:00.054Z,7.94
2019-03-31T04:27:00.031Z,8.04
2019-03-31T04:28:00.022Z,8.10
2019-03-31T04:29:00.022Z,8.04
2019-03-31T04:30:00.031Z,8.02
2019-03-31T04:30:59.990Z,7.89
2019-03-31T04:31:59.980Z,7.94
2019-03-31T04:32:59.979Z,7.96
2019-03-31T04:33:59.972Z,8.03
2019-03-31T04:34:59.986Z,7.95
2019-03-31T04:35:59.934Z,7.99
2019-03-31T04:37:00.676Z,8.07
2019-03-31T04:37:59.920Z,7.96
2019-03-31T04:39:00.699Z,8.02
2019-03-31T04:39:59.947Z,8.06
2019-03-31T04:40:59.879Z,8.06
2019-03-31T04:41:59.864Z,7.96
2019-03-31T04:42:59.867Z,7.95
2019-03-31T04:43:59.856Z,7.94
2019-03-31T04:44:59.849Z,7.96
2019-03-31T04:45:59.848Z,7.89
2019-03-31T04:46:59.822Z,7.86
2019-03-31T04:47:59.820Z,7.92
2019-03-31T04:48:59.806Z,7.95
2019-03-31T04:49:59.781Z,7.89
2019-03-31T04:50:59.773Z,7.84
2019-03-31T04:51:59.770Z,7.91
2019-03-31T04:52:59.789Z,7.96
2019-03-31T04:53:59.751Z,7.85
2019-03-31T04:54:59.732Z,7.85
2019-03-31T04:55:59.721Z,7.88
2019-03-31T04:56:59.714Z,7.89
2019-03-31T04:57:59.713Z,7.91
2019-03-31T04:58:59.686Z,7.84
2019-03-31T04:59:59.681Z,7.82
2019-03-31T05:00:59.680Z,7.85
2019-03-31T05:01:59.669Z,7.81
2019-03-31T05:02:59.704Z,7.95
2019-03-31T05:04:04.905Z,7.85
2019-03-31T05:04:59.622Z,7.91
2019-03-31T05:07:08.810Z,7.82
2019-03-31T05:08:09.817Z,7.89
2019-03-31T05:09:09.782Z,7.82
2019-03-31T05:10:09.792Z,7.85
2019-03-31T05:11:09.777Z,7.82
2019-03-31T05:12:09.754Z,7.91
2019-03-31T05:13:09.754Z,7.85
2019-03-31T05:14:09.738Z,7.81
2019-03-31T05:15:09.725Z,7.82
2019-03-31T05:16:09.736Z,7.82
2019-03-31T05:17:09.700Z,7.84
2019-03-31T05:18:09.734Z,7.84
2019-03-31T05:19:09.689Z,7.85
2019-03-31T05:20:09.676Z,7.82
2019-03-31T05:21:09.683Z,7.85
2019-03-31T05:22:09.660Z,7.76
2019-03-31T05:23:09.649Z,7.74
2019-03-31T05:24:09.640Z,7.76
2019-03-31T05:25:09.614Z,7.85
2019-03-31T05:26:09.615Z,7.77
2019-03-31T05:27:09.591Z,7.82
2019-03-31T05:28:09.594Z,7.86
2019-03-31T05:29:09.592Z,7.73
2019-03-31T05:30:09.554Z,7.71
2019-03-31T05:31:09.550Z,7.73
2019-03-31T05:32:09.571Z,7.70
2019-03-31T05:33:09.522Z,7.74
2019-03-31T05:34:18.946Z,7.62
2019-03-31T05:35:09.506Z,7.71
2019-03-31T05:36:09.503Z,7.71
2019-03-31T05:37:09.486Z,7.66
2019-03-31T05:38:10.045Z,7.58
2019-03-31T05:39:09.478Z,7.60
2019-03-31T05:40:09.450Z,7.69
2019-03-31T05:41:09.433Z,7.60
2019-03-31T05:42:09.425Z,7.52
2019-03-31T05:43:09.425Z,7.45
2019-03-31T05:44:09.431Z,7.41
2019-03-31T05:45:09.404Z,7.34
2019-03-31T05:46:09.388Z,7.27
2019-03-31T05:47:09.377Z,7.19
2019-03-31T05:48:09.376Z,7.09
2019-03-31T05:49:09.376Z,6.94
2019-03-31T05:50:09.339Z,7.04
2019-03-31T05:51:09.330Z,6.87
2019-03-31T05:52:09.325Z,6.83
2019-03-31T05:53:09.325Z,6.83
2019-03-31T05:54:09.320Z,6.76
2019-03-31T05:55:09.289Z,6.76
2019-03-31T05:56:09.273Z,6.71
2019-03-31T05:57:09.268Z,6.65
2019-03-31T05:58:09.272Z,6.68
2019-03-31T05:59:09.263Z,6.63
2019-03-31T06:00:09.238Z,6.68
2019-03-31T06:01:10.059Z,6.65
2019-03-31T06:02:09.210Z,6.64
2019-03-31T06:03:09.208Z,6.68
2019-03-31T06:04:09.216Z,6.64
2019-03-31T06:05:09.187Z,6.69
2019-03-31T06:06:09.176Z,6.71
2019-03-31T06:07:09.165Z,6.65
2019-03-31T06:08:09.150Z,6.68
2019-03-31T06:09:09.161Z,6.63
2019-03-31T06:10:09.127Z,6.73
2019-03-31T06:11:09.123Z,6.68
2019-03-31T06:12:09.108Z,6.76
2019-03-31T06:13:09.100Z,6.76
2019-03-31T06:14:09.094Z,6.79
2019-03-31T06:15:09.083Z,6.78
2019-03-31T06:16:09.057Z,6.76
2019-03-31T06:17:09.051Z,6.71
2019-03-31T06:18:09.041Z,6.75
2019-03-31T06:19:09.049Z,6.78
2019-03-31T06:20:09.020Z,6.68
2019-03-31T06:21:09.011Z,6.78
2019-03-31T06:22:09.005Z,6.82
2019-03-31T06:23:09.011Z,6.79
2019-03-31T06:24:08.999Z,6.73
2019-03-31T06:25:08.971Z,6.78
2019-03-31T06:26:08.985Z,6.79
2019-03-31T06:27:08.940Z,6.81
2019-03-31T06:28:08.958Z,6.65
2019-03-31T06:29:08.944Z,6.81
2019-03-31T06:30:08.902Z,6.79
2019-03-31T06:31:08.904Z,6.69
2019-03-31T06:32:08.893Z,6.78
2019-03-31T06:33:08.881Z,6.86
2019-03-31T06:34:08.893Z,6.78
2019-03-31T06:35:08.855Z,6.91
2019-03-31T06:36:08.859Z,6.90
2019-03-31T06:37:08.859Z,6.90
2019-03-31T06:38:08.827Z,6.90
2019-03-31T06:39:08.821Z,6.90
2019-03-31T06:40:08.797Z,6.99
2019-03-31T06:41:08.796Z,6.97
2019-03-31T06:42:08.776Z,6.99
2019-03-31T06:43:08.784Z,6.91
2019-03-31T06:44:08.769Z,6.96
2019-03-31T06:45:08.752Z,6.96
2019-03-31T06:46:08.727Z,6.97
2019-03-31T06:47:08.726Z,7.05
2019-03-31T06:48:08.706Z,7.00
2019-03-31T06:49:08.806Z,7.05
2019-03-31T06:50:08.700Z,7.09
2019-03-31T06:51:08.678Z,7.18
2019-03-31T06:52:08.667Z,7.18
2019-03-31T06:53:08.657Z,7.18
2019-03-31T06:54:08.662Z,7.15
2019-03-31T06:55:08.645Z,7.18
2019-03-31T06:56:08.634Z,7.18
2019-03-31T06:57:08.619Z,7.14
2019-03-31T06:58:08.604Z,7.21
2019-03-31T06:59:08.650Z,7.27
2019-03-31T07:00:08.591Z,7.32
2019-03-31T07:01:08.571Z,7.39
2019-03-31T07:02:08.568Z,7.42
2019-03-31T07:03:08.550Z,7.41
2019-03-31T07:04:08.561Z,7.30
2019-03-31T07:05:08.550Z,7.30
2019-03-31T07:06:08.538Z,7.30
2019-03-31T07:08:17.710Z,7.60
2019-03-31T07:09:18.723Z,7.47
2019-03-31T07:10:18.691Z,7.50
2019-03-31T07:11:18.675Z,7.63
2019-03-31T07:12:18.659Z,7.69
2019-03-31T07:13:18.664Z,7.71
2019-03-31T07:14:18.745Z,7.84
2019-03-31T07:15:18.628Z,7.84
2019-03-31T07:16:18.645Z,7.81
2019-03-31T07:17:18.605Z,7.86
2019-03-31T07:18:18.603Z,7.86
2019-03-31T07:19:18.609Z,7.77
2019-03-31T07:20:18.601Z,7.91
2019-03-31T07:21:18.561Z,7.96
2019-03-31T07:22:18.564Z,8.02
2019-03-31T07:23:18.547Z,7.89
2019-03-31T07:24:18.538Z,7.96
2019-03-31T07:25:18.539Z,7.92
2019-03-31T07:26:18.516Z,8.09
2019-03-31T07:27:18.510Z,8.20
2019-03-31T07:28:18.499Z,8.36
2019-03-31T07:29:18.483Z,8.34
2019-03-31T07:30:18.483Z,8.37
2019-03-31T07:31:18.465Z,8.40
2019-03-31T07:32:18.460Z,8.42
2019-03-31T07:33:18.439Z,8.39
2019-03-31T07:34:18.434Z,8.42
2019-03-31T07:35:19.101Z,8.34
2019-03-31T07:36:18.402Z,8.46
2019-03-31T07:37:18.400Z,8.34
2019-03-31T07:38:18.643Z,8.36
2019-03-31T07:39:18.430Z,8.36
2019-03-31T07:40:18.567Z,8.43
2019-03-31T07:41:18.495Z,8.58
2019-03-31T07:42:18.349Z,8.60
2019-03-31T07:43:18.448Z,8.47
2019-03-31T07:44:18.324Z,8.50
2019-03-31T07:45:18.335Z,8.65
2019-03-31T07:46:18.337Z,8.78
2019-03-31T07:47:18.293Z,8.83
2019-03-31T07:48:18.274Z,8.89
2019-03-31T07:49:18.265Z,8.96
2019-03-31T07:50:18.261Z,8.98
2019-03-31T07:51:18.251Z,9.10
2019-03-31T07:52:18.227Z,9.24
2019-03-31T07:53:18.228Z,9.22
2019-03-31T07:54:18.246Z,9.22
2019-03-31T07:55:18.217Z,8.98
2019-03-31T07:56:18.195Z,8.96
2019-03-31T07:57:18.165Z,9.00
2019-03-31T07:58:18.201Z,8.91
2019-03-31T07:59:18.248Z,8.82
2019-03-31T08:00:18.169Z,8.83
2019-03-31T08:01:18.131Z,8.83
2019-03-31T08:02:18.119Z,8.78
2019-03-31T08:03:18.104Z,8.78
2019-03-31T08:04:18.093Z,8.80
2019-03-31T08:05:32.036Z,8.79
2019-03-31T08:06:18.076Z,8.61
2019-03-31T08:07:18.052Z,8.75
2019-03-31T08:08:18.051Z,8.67
2019-03-31T08:09:18.038Z,8.64
2019-03-31T08:10:18.034Z,8.67
2019-03-31T08:11:18.015Z,8.73
2019-03-31T08:12:18.008Z,8.63
2019-03-31T08:13:17.995Z,8.80
2019-03-31T08:14:17.977Z,8.82
2019-03-31T08:15:17.985Z,8.76
2019-03-31T08:16:17.960Z,8.85
2019-03-31T08:17:18.043Z,9.13
2019-03-31T08:18:17.943Z,9.26
2019-03-31T08:19:20.707Z,9.44
2019-03-31T08:20:17.930Z,9.26
2019-03-31T08:21:17.904Z,9.26
2019-03-31T08:22:17.886Z,9.22
2019-03-31T08:23:17.898Z,9.26
2019-03-31T08:24:17.877Z,9.32
2019-03-31T08:25:17.875Z,9.56
2019-03-31T08:26:17.853Z,9.67
2019-03-31T08:27:17.853Z,9.68
2019-03-31T08:28:17.835Z,9.74
2019-03-31T08:29:17.819Z,9.75
2019-03-31T08:30:17.824Z,9.71
2019-03-31T08:31:17.797Z,9.80
2019-03-31T08:32:17.795Z,9.78
2019-03-31T08:33:17.779Z,9.65
2019-03-31T08:34:17.765Z,9.85
2019-03-31T08:35:17.771Z,10.11
2019-03-31T08:36:17.739Z,10.28
2019-03-31T08:37:17.731Z,10.34
2019-03-31T08:38:17.707Z,10.35
2019-03-31T08:39:17.722Z,10.42
2019-03-31T08:40:17.710Z,10.38
2019-03-31T08:41:17.678Z,10.35
2019-03-31T08:42:17.691Z,10.34
2019-03-31T08:43:17.676Z,10.39
2019-03-31T08:44:17.656Z,10.46
2019-03-31T08:45:17.703Z,10.58
2019-03-31T08:46:17.641Z,10.73
2019-03-31T08:47:17.622Z,10.63
2019-03-31T08:48:17.602Z,10.51
2019-03-31T08:49:17.593Z,10.49
2019-03-31T08:50:17.605Z,10.38
2019-03-31T08:51:17.605Z,10.34
2019-03-31T08:52:17.568Z,10.29
2019-03-31T08:53:17.562Z,10.28
2019-03-31T08:54:17.553Z,10.34
2019-03-31T08:55:17.536Z,10.34
2019-03-31T08:56:17.532Z,10.16
2019-03-31T08:57:17.514Z,10.11
2019-03-31T08:58:17.488Z,10.11
2019-03-31T08:59:17.492Z,9.99
2019-03-31T09:00:17.474Z,10.17
2019-03-31T09:01:17.491Z,10.24
2019-03-31T09:02:17.453Z,10.28
2019-03-31T09:03:17.442Z,10.38
2019-03-31T09:04:17.436Z,10.36
2019-03-31T09:05:17.416Z,10.28
2019-03-31T09:06:17.436Z,10.34
2019-03-31T09:07:17.405Z,10.39
2019-03-31T09:09:27.314Z,10.58
2019-03-31T09:10:28.288Z,10.54
2019-03-31T09:11:28.303Z,10.63
2019-03-31T09:12:28.282Z,10.66
2019-03-31T09:13:28.266Z,10.65
2019-03-31T09:14:28.253Z,10.76
2019-03-31T09:15:28.236Z,10.87
2019-03-31T09:16:28.380Z,10.83
2019-03-31T09:17:28.216Z,10.78
2019-03-31T09:18:28.213Z,10.73
2019-03-31T09:19:28.211Z,10.75
2019-03-31T09:20:28.188Z,10.57
2019-03-31T09:21:28.197Z,10.57
2019-03-31T09:22:28.198Z,10.57
2019-03-31T09:23:28.153Z,10.52
2019-03-31T09:24:28.155Z,10.60
2019-03-31T09:25:28.140Z,10.62
2019-03-31T09:26:28.212Z,10.52
2019-03-31T09:27:28.129Z,10.68
2019-03-31T09:28:28.103Z,10.68
2019-03-31T09:29:28.095Z,10.73
2019-03-31T09:30:28.077Z,10.76
2019-03-31T09:31:28.089Z,10.78
2019-03-31T09:32:28.061Z,10.76
2019-03-31T09:33:28.034Z,10.80
2019-03-31T09:34:28.027Z,10.66
2019-03-31T09:35:28.042Z,10.72
2019-03-31T09:36:28.031Z,10.81
2019-03-31T09:37:28.002Z,10.87
2019-03-31T09:38:27.984Z,10.73
2019-03-31T09:39:27.980Z,10.72
2019-03-31T09:40:27.973Z,10.70
2019-03-31T09:41:27.978Z,10.63
2019-03-31T09:42:27.951Z,10.42
2019-03-31T09:43:27.953Z,10.60
2019-03-31T09:44:30.293Z,10.70
2019-03-31T09:45:27.931Z,10.63
2019-03-31T09:46:27.923Z,10.58
2019-03-31T09:47:27.887Z,10.68
2019-03-31T09:48:27.886Z,10.75
2019-03-31T09:49:27.872Z,10.80
2019-03-31T09:50:27.859Z,11.06
2019-03-31T09:51:27.866Z,11.13
2019-03-31T09:52:27.968Z,11.09
2019-03-31T09:53:27.828Z,11.21
2019-03-31T09:54:27.805Z,11.24
2019-03-31T09:55:27.799Z,11.46
2019-03-31T09:56:27.808Z,11.39
2019-03-31T09:57:27.783Z,11.45
2019-03-31T09:58:27.766Z,11.53
2019-03-31T09:59:27.746Z,11.44
2019-03-31T10:00:27.765Z,11.21
2019-03-31T10:01:27.737Z,11.01
2019-03-31T10:02:27.734Z,11.01
2019-03-31T10:03:27.722Z,10.87
2019-03-31T10:04:27.708Z,10.78
2019-03-31T10:05:27.691Z,10.80
2019-03-31T10:06:30.486Z,10.91
2019-03-31T10:07:27.688Z,10.81
2019-03-31T10:08:27.664Z,10.75
2019-03-31T10:09:27.639Z,10.80
2019-03-31T10:10:27.632Z,10.69
2019-03-31T10:11:27.635Z,10.57
2019-03-31T10:12:27.635Z,10.63
2019-03-31T10:13:27.604Z,10.58
2019-03-31T10:14:27.592Z,10.68
2019-03-31T10:15:27.607Z,10.83
2019-03-31T10:16:27.574Z,10.93
2019-03-31T10:17:27.576Z,10.94
2019-03-31T10:18:27.545Z,10.91
2019-03-31T10:19:27.530Z,10.93
2019-03-31T10:20:31.126Z,10.98
2019-03-31T10:21:27.509Z,11.13
2019-03-31T10:22:27.508Z,11.31
2019-03-31T10:23:27.505Z,11.39
2019-03-31T10:24:27.468Z,11.26
2019-03-31T10:25:27.465Z,11.20
2019-03-31T10:26:32.089Z,11.38
2019-03-31T10:27:27.488Z,11.31
2019-03-31T10:28:27.435Z,11.21
2019-03-31T10:29:27.419Z,11.24
2019-03-31T10:30:27.426Z,11.35
2019-03-31T10:31:27.389Z,11.45
2019-03-31T10:32:27.417Z,11.42
2019-03-31T10:33:27.368Z,11.26
2019-03-31T10:34:27.368Z,11.19
2019-03-31T10:35:27.355Z,11.01
2019-03-31T10:36:27.339Z,11.02
2019-03-31T10:37:27.372Z,11.05
2019-03-31T10:38:27.316Z,11.06
2019-03-31T10:39:27.329Z,11.20
2019-03-31T10:40:27.298Z,11.13
2019-03-31T10:41:30.700Z,11.26
2019-03-31T10:42:27.282Z,11.39
2019-03-31T10:43:27.312Z,11.33
2019-03-31T10:44:27.245Z,11.49
2019-03-31T10:45:27.236Z,11.51
2019-03-31T10:46:27.241Z,11.49
2019-03-31T10:47:27.241Z,11.49
2019-03-31T10:48:27.207Z,11.44
2019-03-31T10:49:27.206Z,11.49
2019-03-31T10:50:27.182Z,11.38
2019-03-31T10:51:27.169Z,11.45
2019-03-31T10:52:27.212Z,11.42
2019-03-31T10:53:27.156Z,11.35
2019-03-31T10:54:27.144Z,11.27
2019-03-31T10:55:27.137Z,11.24
2019-03-31T10:56:27.125Z,11.20
2019-03-31T10:57:27.137Z,11.23
2019-03-31T10:58:27.106Z,11.16
2019-03-31T10:59:27.079Z,11.11
2019-03-31T11:00:27.081Z,11.03
2019-03-31T11:01:27.055Z,10.86
2019-03-31T11:02:27.076Z,10.78
2019-03-31T11:03:27.051Z,10.52
2019-03-31T11:04:27.025Z,10.51
2019-03-31T11:05:27.070Z,10.70
2019-03-31T11:06:27.015Z,10.78
2019-03-31T11:07:27.026Z,10.84
2019-03-31T11:08:26.986Z,10.66
2019-03-31T11:10:36.167Z,10.73
2019-03-31T11:11:37.157Z,10.84
2019-03-31T11:12:37.166Z,10.90
2019-03-31T11:13:37.127Z,10.88
2019-03-31T11:14:37.114Z,11.01
2019-03-31T11:15:37.099Z,11.26
2019-03-31T11:16:37.903Z,11.27
2019-03-31T11:17:37.107Z,11.36
2019-03-31T11:18:37.073Z,11.51
2019-03-31T11:19:37.060Z,11.56
2019-03-31T11:20:37.057Z,11.51
2019-03-31T11:21:40.267Z,11.62
2019-03-31T11:22:37.053Z,11.57
2019-03-31T11:23:37.011Z,11.59
2019-03-31T11:24:37.006Z,11.62
2019-03-31T11:25:37.005Z,11.56
2019-03-31T11:26:37.002Z,11.42
2019-03-31T11:27:37.002Z,11.35
2019-03-31T11:28:36.960Z,11.26
2019-03-31T11:29:36.949Z,11.19
2019-03-31T11:30:36.935Z,11.17
2019-03-31T11:31:36.935Z,11.13
2019-03-31T11:32:36.941Z,11.23
2019-03-31T11:33:36.922Z,11.20
2019-03-31T11:34:36.891Z,11.35
2019-03-31T11:35:36.895Z,11.38
2019-03-31T11:36:36.875Z,11.30
2019-03-31T11:37:36.885Z,11.39
2019-03-31T11:38:36.857Z,11.49
2019-03-31T11:39:36.840Z,11.60
2019-03-31T11:40:36.832Z,11.60
2019-03-31T11:41:36.823Z,11.57
2019-03-31T11:42:36.837Z,11.59
2019-03-31T11:43:36.810Z,11.56
2019-03-31T11:44:36.785Z,11.38
2019-03-31T11:45:36.795Z,11.36
2019-03-31T11:46:36.750Z,11.46
2019-03-31T11:47:36.765Z,11.38
2019-03-31T11:48:36.748Z,11.39
2019-03-31T11:49:36.729Z,11.30
2019-03-31T11:50:36.715Z,11.31
2019-03-31T11:51:36.939Z,11.26
2019-03-31T11:52:36.697Z,11.12
2019-03-31T11:53:36.683Z,11.11
2019-03-31T11:54:36.664Z,11.09
2019-03-31T11:55:36.650Z,11.13
2019-03-31T11:56:36.679Z,11.16
2019-03-31T11:57:36.638Z,11.17
2019-03-31T11:58:36.631Z,10.95
2019-03-31T11:59:36.634Z,10.99
2019-03-31T12:00:36.603Z,10.94
2019-03-31T12:01:36.613Z,11.03
2019-03-31T12:02:36.586Z,11.13
2019-03-31T12:03:36.569Z,11.12
2019-03-31T12:04:36.566Z,11.03
2019-03-31T12:05:36.560Z,11.05
2019-03-31T12:06:36.532Z,11.19
2019-03-31T12:07:46.477Z,11.19
2019-03-31T12:08:36.520Z,11.26
2019-03-31T12:09:36.498Z,11.38
2019-03-31T12:10:36.482Z,11.35
2019-03-31T12:11:36.476Z,11.38
2019-03-31T12:12:36.490Z,11.42
2019-03-31T12:13:36.461Z,11.48
2019-03-31T12:14:36.455Z,11.51
2019-03-31T12:15:36.435Z,11.33
2019-03-31T12:16:36.436Z,11.31
2019-03-31T12:17:36.422Z,11.33
2019-03-31T12:18:36.406Z,11.33
2019-03-31T12:19:36.382Z,11.44
2019-03-31T12:20:36.374Z,11.42
2019-03-31T12:21:36.367Z,11.48
2019-03-31T12:22:36.381Z,11.74
2019-03-31T12:23:36.339Z,11.88
2019-03-31T12:24:36.348Z,11.97
2019-03-31T12:25:36.331Z,12.00
2019-03-31T12:26:36.301Z,12.03
2019-03-31T12:27:36.331Z,11.98
2019-03-31T12:28:36.287Z,12.08
2019-03-31T12:29:36.278Z,12.26
2019-03-31T12:30:36.269Z,12.44
2019-03-31T12:31:36.255Z,11.98
2019-03-31T12:32:38.388Z,11.90
2019-03-31T12:33:36.228Z,11.94
2019-03-31T12:34:36.228Z,12.31
2019-03-31T12:35:36.202Z,12.25
2019-03-31T12:36:36.197Z,12.34
2019-03-31T12:37:42.544Z,12.36
2019-03-31T12:38:36.188Z,12.37
2019-03-31T12:39:36.172Z,12.38
2019-03-31T12:40:36.159Z,12.08
2019-03-31T12:41:36.152Z,12.13
2019-03-31T12:42:36.134Z,12.22
2019-03-31T12:43:36.146Z,12.08
2019-03-31T12:44:36.107Z,12.21
2019-03-31T12:45:36.931Z,12.31
2019-03-31T12:46:36.117Z,12.56
2019-03-31T12:47:36.074Z,12.67
2019-03-31T12:48:36.082Z,12.67
2019-03-31T12:49:36.045Z,12.69
2019-03-31T12:50:36.067Z,12.70
2019-03-31T12:51:36.024Z,12.67
2019-03-31T12:52:46.495Z,12.63
2019-03-31T12:53:36.035Z,12.63
2019-03-31T12:54:36.002Z,12.59
2019-03-31T12:55:35.987Z,12.54
2019-03-31T12:56:35.974Z,12.63
2019-03-31T12:57:35.975Z,12.52
2019-03-31T12:58:35.984Z,12.58
2019-03-31T12:59:35.942Z,12.52
2019-03-31T13:00:35.936Z,12.49
2019-03-31T13:01:35.916Z,12.46
2019-03-31T13:02:35.916Z,12.44
2019-03-31T13:03:35.929Z,12.31
2019-03-31T13:04:35.895Z,12.13
2019-03-31T13:05:35.886Z,12.16
2019-03-31T13:06:35.865Z,12.22
2019-03-31T13:07:35.855Z,12.37
2019-03-31T13:08:35.877Z,12.12
2019-03-31T13:09:35.831Z,11.98
2019-03-31T13:11:45.011Z,11.69
2019-03-31T13:12:45.993Z,11.94
2019-03-31T13:13:46.001Z,12.16
2019-03-31T13:14:45.972Z,12.23
2019-03-31T13:15:45.953Z,12.34
2019-03-31T13:16:45.954Z,12.33
2019-03-31T13:17:45.941Z,12.37